Time;durP1;ratioP1;P1;durP2;ratioP2;P2;SDS_P1;SDS_P2;PMS_P1;PMS_P2;Temp;Humidity;BMP_temperature;BMP_pressure;BME280_temperature;BME280_humidity;BME280_pressure;Samples;Min_cycle;Max_cycle;Signal;HPM_P1;HPM_P2
2021/09/26 00:01:33;;;;;;;2.33;1.88;;;;;;;17.53;45.85;94447.19;5028265;28;20041;-79
2021/09/26 00:03:58;;;;;;;2.78;2.13;;;;;;;17.68;45.90;94480.66;5027549;28;20053;-79
2021/09/26 00:06:23;;;;;;;2.50;2.13;;;;;;;17.80;46.09;94500.22;5031495;28;20557;-78
2021/09/26 00:08:49;;;;;;;3.83;2.22;;;;;;;17.62;46.20;94485.47;5026346;28;20573;-79
2021/09/26 00:11:15;;;;;;;2.40;2.20;;;;;;;17.66;46.00;94483.66;5029676;28;20048;-78
2021/09/26 00:13:42;;;;;;;4.25;2.33;;;;;;;17.72;45.98;94495.75;5025679;28;20406;-77
2021/09/26 00:16:09;;;;;;;3.05;2.42;;;;;;;17.65;46.41;94487.47;5033533;28;20041;-79
2021/09/26 00:18:35;;;;;;;4.70;2.42;;;;;;;17.58;46.33;94484.59;5029965;28;20126;-78
2021/09/26 00:21:01;;;;;;;2.42;1.80;;;;;;;17.57;46.50;94485.72;5030282;28;20049;-78
2021/09/26 00:23:27;;;;;;;2.15;1.90;;;;;;;17.55;46.47;94487.97;5026302;28;20036;-80
2021/09/26 00:25:55;;;;;;;2.33;2.10;;;;;;;17.48;46.72;94483.16;5025607;28;20044;-79
2021/09/26 00:28:22;;;;;;;2.40;2.20;;;;;;;17.48;46.46;94483.16;5025573;28;20098;-78
2021/09/26 00:30:49;;;;;;;2.95;2.03;;;;;;;17.47;46.72;94488.88;5035805;28;20633;-78
2021/09/26 00:33:14;;;;;;;7.88;2.30;;;;;;;17.41;46.83;94471.41;5028002;28;20079;-78
2021/09/26 00:35:40;;;;;;;5.07;2.63;;;;;;;17.41;46.71;94488.31;5026918;28;20041;-78
2021/09/26 00:38:05;;;;;;;2.45;2.25;;;;;;;17.48;46.63;94493.94;5027253;28;20464;-78
2021/09/26 00:40:33;;;;;;;2.85;2.35;;;;;;;17.49;46.68;94492.03;5023750;28;20040;-78
2021/09/26 00:42:58;;;;;;;2.00;1.80;;;;;;;17.42;46.71;94492.59;5030155;28;20041;-78
2021/09/26 00:45:28;;;;;;;2.75;2.08;;;;;;;17.40;47.02;94481.41;5025727;28;20514;-77
2021/09/26 00:47:53;;;;;;;3.40;2.05;;;;;;;17.26;47.25;94493.66;5027551;28;20045;-80
2021/09/26 00:50:19;;;;;;;2.28;1.85;;;;;;;17.13;47.35;94487.44;5027222;28;21217;-78
2021/09/26 00:52:46;;;;;;;2.80;2.05;;;;;;;17.08;47.36;94480.41;5031713;28;20051;-77
2021/09/26 00:55:12;;;;;;;6.55;2.80;;;;;;;16.97;47.66;94483.88;5028597;28;20063;-80
2021/09/26 00:57:46;;;;;;;6.53;2.60;;;;;;;17.03;47.61;94488.69;5034902;28;20102;-77
2021/09/26 01:00:17;;;;;;;3.07;2.53;;;;;;;17.00;47.65;94488.59;5049238;28;20041;-78
2021/09/26 01:02:42;;;;;;;2.85;2.65;;;;;;;16.98;48.00;94490.81;5027955;28;20274;-77
2021/09/26 01:05:26;;;;;;;2.55;2.08;;;;;;;16.92;48.08;94487.56;5034104;28;20029;-77
2021/09/26 01:08:09;;;;;;;4.38;2.38;;;;;;;17.02;47.78;94491.72;5045893;28;20103;-80
2021/09/26 01:10:40;;;;;;;2.90;2.65;;;;;;;16.93;47.90;94494.53;5026353;28;20050;-76
2021/09/26 01:13:15;;;;;;;7.97;2.63;;;;;;;16.85;48.14;94497.31;5033258;28;20033;-77
2021/09/26 01:15:54;;;;;;;8.10;3.38;;;;;;;16.85;48.39;94500.78;5030449;28;20045;-79
2021/09/26 01:18:31;;;;;;;4.15;3.17;;;;;;;16.86;48.30;94505.06;5030893;28;20512;-78
2021/09/26 01:21:06;;;;;;;4.97;2.67;;;;;;;16.81;48.39;94491.84;5038868;28;20110;-79
2021/09/26 01:24:14;;;;;;;3.10;2.80;;;;;;;16.68;48.68;94493.72;5033721;28;20079;-78
2021/09/26 01:26:44;;;;;;;3.45;2.55;;;;;;;16.73;48.49;94500.78;5015240;28;20077;-79
2021/09/26 01:29:12;;;;;;;3.47;2.78;;;;;;;16.63;48.84;94496.63;5038700;28;20037;-78
2021/09/26 01:31:43;;;;;;;4.50;3.15;;;;;;;16.49;48.77;94485.44;5033491;28;20602;-77
2021/09/26 01:34:13;;;;;;;3.05;2.42;;;;;;;16.24;49.08;94441.63;5045932;28;20934;-78
2021/09/26 01:36:49;;;;;;;6.68;3.10;;;;;;;16.53;49.01;94494.38;5032721;28;20134;-78
2021/09/26 01:39:36;;;;;;;4.07;2.35;;;;;;;16.62;48.71;94495.06;5036234;28;20045;-77
2021/09/26 01:42:14;;;;;;;3.72;2.20;;;;;;;16.45;49.25;94494.47;5036575;28;20037;-77
2021/09/26 01:44:56;;;;;;;3.90;3.03;;;;;;;16.30;49.25;94477.91;5031227;28;20881;-79
2021/09/26 01:47:29;;;;;;;3.25;2.40;;;;;;;16.41;49.45;94499.75;5034810;28;20060;-77
2021/09/26 01:50:07;;;;;;;3.95;1.83;;;;;;;16.36;49.19;94493.78;5039096;28;20025;-78
2021/09/26 01:52:36;;;;;;;3.25;1.83;;;;;;;16.22;49.30;94456.50;5034500;28;20044;-77
2021/09/26 01:55:05;;;;;;;2.72;1.67;;;;;;;16.36;49.05;94480.38;5033757;28;20061;-79
2021/09/26 01:57:31;;;;;;;2.35;1.85;;;;;;;16.28;49.52;94473.97;5028712;28;20056;-77
2021/09/26 02:00:00;;;;;;;1.98;1.75;;;;;;;16.38;49.11;94486.22;5028945;28;20172;-78
2021/09/26 02:02:27;;;;;;;3.88;2.22;;;;;;;16.48;48.68;94497.28;5034912;28;20025;-77
2021/09/26 02:05:01;;;;;;;2.45;1.90;;;;;;;16.47;49.00;94497.63;5037573;28;20037;-77
2021/09/26 02:07:37;;;;;;;2.38;1.88;;;;;;;16.41;49.21;94504.31;5028597;28;20075;-79
2021/09/26 02:10:05;;;;;;;8.77;2.30;;;;;;;16.44;49.04;94498.28;5032283;28;20052;-78
2021/09/26 02:12:32;;;;;;;2.92;2.13;;;;;;;16.31;48.80;94479.47;5025114;28;20640;-78
2021/09/26 02:14:59;;;;;;;4.38;2.20;;;;;;;16.36;48.84;94491.91;5029574;28;20052;-78
2021/09/26 02:17:29;;;;;;;2.65;1.85;;;;;;;16.37;48.66;94495.38;5025610;28;20025;-78
2021/09/26 02:20:00;;;;;;;1.85;1.38;;;;;;;16.47;48.45;94503.00;5022580;28;20067;-77
2021/09/26 02:22:32;;;;;;;1.70;1.60;;;;;;;16.37;48.53;94495.38;5045540;28;20661;-77
2021/09/26 02:25:04;;;;;;;2.25;1.88;;;;;;;16.38;48.48;94488.91;5037206;28;20100;-79
2021/09/26 02:27:31;;;;;;;2.72;1.77;;;;;;;16.29;48.52;94487.03;5020889;28;20471;-78
2021/09/26 02:29:57;;;;;;;3.35;1.88;;;;;;;16.33;48.65;94502.53;5035103;28;20095;-79
2021/09/26 02:32:22;;;;;;;2.78;2.03;;;;;;;16.22;48.91;94492.19;5034663;28;20078;-78
2021/09/26 02:34:48;;;;;;;4.65;2.08;;;;;;;16.22;48.97;94499.44;5035993;28;20434;-78
2021/09/26 02:37:13;;;;;;;3.80;2.08;;;;;;;16.16;49.04;94498.88;5026335;28;20037;-78
2021/09/26 02:39:47;;;;;;;3.83;2.03;;;;;;;16.15;49.56;94508.03;5029215;28;20041;-79
2021/09/26 02:42:31;;;;;;;2.35;2.15;;;;;;;15.98;49.42;94488.63;5027445;28;20763;-79
2021/09/26 02:45:18;;;;;;;2.67;2.25;;;;;;;16.08;49.57;94513.16;5029960;28;20041;-78
2021/09/26 02:47:54;;;;;;;2.30;1.88;;;;;;;16.04;49.69;94517.59;5021911;28;20558;-78
2021/09/26 02:50:21;;;;;;;2.55;2.10;;;;;;;16.00;50.04;94515.91;5030144;28;20044;-78
2021/09/26 02:52:47;;;;;;;5.68;3.80;;;;;;;15.80;50.27;94490.69;5033570;28;20047;-78
2021/09/26 02:55:14;;;;;;;3.13;2.83;;;;;;;15.88;49.97;94503.25;5029053;28;20047;-78
2021/09/26 02:57:40;;;;;;;3.70;2.38;;;;;;;15.90;50.09;94506.38;5035237;28;20061;-79
2021/09/26 03:00:12;;;;;;;3.15;2.30;;;;;;;15.96;50.10;94518.47;5029250;28;20072;-77
2021/09/26 03:02:38;;;;;;;3.47;2.17;;;;;;;15.88;50.03;94520.13;5027469;28;20581;-78
2021/09/26 03:05:07;;;;;;;3.30;2.63;;;;;;;15.87;50.23;94520.44;5032534;28;20032;-78
2021/09/26 03:07:32;;;;;;;4.15;2.75;;;;;;;15.83;50.13;94519.53;5029017;28;20040;-78
2021/09/26 03:09:58;;;;;;;3.58;2.97;;;;;;;15.85;50.30;94526.13;5031795;28;20042;-80
2021/09/26 03:12:23;;;;;;;4.18;3.40;;;;;;;15.43;50.56;94462.91;5030574;28;20045;-79
2021/09/26 03:14:50;;;;;;;3.67;2.97;;;;;;;15.81;50.61;94519.06;5027255;28;20090;-77
2021/09/26 03:17:16;;;;;;;4.10;3.70;;;;;;;15.80;50.39;94520.97;5026515;28;20029;-77
2021/09/26 03:19:42;;;;;;;4.35;3.95;;;;;;;15.77;50.54;94513.59;5032479;28;20036;-80
2021/09/26 03:22:15;;;;;;;4.78;3.03;;;;;;;15.88;50.26;94517.44;5028949;28;20467;-76
2021/09/26 03:24:41;;;;;;;5.68;3.97;;;;;;;15.85;50.24;94514.63;5024872;28;20040;-78
2021/09/26 03:27:14;;;;;;;7.70;5.50;;;;;;;15.81;50.26;94511.03;5033551;28;20039;-77
2021/09/26 03:29:42;;;;;;;13.77;10.02;;;;;;;15.51;49.95;94475.47;5032226;28;20045;-78
2021/09/26 03:32:08;;;;;;;12.38;9.43;;;;;;;15.62;50.74;94495.41;5049889;28;20798;-78
2021/09/26 03:34:34;;;;;;;10.18;7.97;;;;;;;15.71;50.35;94498.00;5031066;28;20053;-80
2021/09/26 03:36:59;;;;;;;7.47;5.43;;;;;;;15.70;50.11;94497.22;5028867;28;20037;-78
2021/09/26 03:39:24;;;;;;;4.97;4.43;;;;;;;15.77;50.22;94513.59;5030744;28;20044;-79
2021/09/26 03:41:50;;;;;;;5.45;3.40;;;;;;;15.79;50.24;94510.59;5034309;28;20587;-79
2021/09/26 03:44:16;;;;;;;5.50;3.15;;;;;;;15.77;50.23;94513.59;5026691;28;20029;-77
2021/09/26 03:46:41;;;;;;;3.35;2.60;;;;;;;15.77;50.45;94512.81;5027430;28;20555;-80
2021/09/26 03:49:06;;;;;;;3.35;2.85;;;;;;;15.67;50.64;94507.84;5030550;28;20037;-78
2021/09/26 03:51:32;;;;;;;5.18;3.13;;;;;;;15.62;50.59;94494.63;5031009;28;20048;-78
2021/09/26 03:53:58;;;;;;;3.80;2.97;;;;;;;15.68;50.63;94507.50;5028238;28;20967;-79
2021/09/26 03:56:23;;;;;;;4.28;3.00;;;;;;;15.57;50.77;94505.53;5023748;28;20089;-77
2021/09/26 03:58:49;;;;;;;4.78;3.47;;;;;;;15.22;50.90;94443.34;5032002;28;20021;-79
2021/09/26 04:01:14;;;;;;;3.33;3.03;;;;;;;15.52;51.23;94500.38;5032251;28;20041;-78
2021/09/26 04:03:40;;;;;;;3.30;2.83;;;;;;;15.54;51.27;94492.81;5029744;28;20507;-80
2021/09/26 04:06:09;;;;;;;4.63;3.08;;;;;;;15.51;50.92;94504.16;5029591;28;20056;-77
2021/09/26 04:08:39;;;;;;;4.00;3.13;;;;;;;15.51;50.91;94488.09;5032936;28;20044;-78
2021/09/26 04:11:09;;;;;;;8.10;3.10;;;;;;;15.69;50.44;94511.78;5028043;28;20490;-78
2021/09/26 04:13:35;;;;;;;7.03;3.45;;;;;;;15.69;50.19;94505.63;5028733;28;20036;-79
2021/09/26 04:16:00;;;;;;;3.85;3.22;;;;;;;15.47;50.72;94509.41;5032527;28;20591;-78
2021/09/26 04:18:26;;;;;;;4.90;4.18;;;;;;;15.41;51.09;94510.66;5023476;28;20459;-79
2021/09/26 04:20:51;;;;;;;5.72;3.33;;;;;;;15.49;50.74;94519.81;5027693;28;20154;-81
2021/09/26 04:23:17;;;;;;;4.28;3.70;;;;;;;15.52;50.88;94527.19;5031135;28;20114;-79
2021/09/26 04:25:43;;;;;;;8.45;4.30;;;;;;;15.41;51.45;94527.53;5022090;28;20474;-77
2021/09/26 04:28:09;;;;;;;5.43;4.47;;;;;;;15.37;51.55;94531.19;5026832;28;20037;-77
2021/09/26 04:30:36;;;;;;;8.15;4.65;;;;;;;15.32;51.92;94524.13;5029203;28;20574;-77
2021/09/26 04:33:03;;;;;;;5.50;4.18;;;;;;;15.27;51.95;94527.00;5032802;28;20095;-80
2021/09/26 04:35:29;;;;;;;8.20;6.25;;;;;;;15.24;52.13;94522.31;5027775;28;20438;-79
2021/09/26 04:37:54;;;;;;;7.10;5.65;;;;;;;15.28;51.81;94517.88;5033496;28;20017;-80
2021/09/26 04:40:26;;;;;;;11.05;5.15;;;;;;;15.54;51.28;94519.63;5025039;28;20392;-80
2021/09/26 04:42:52;;;;;;;5.63;4.30;;;;;;;15.42;51.41;94518.41;5049081;28;20572;-78
2021/09/26 04:45:17;;;;;;;6.35;4.18;;;;;;;15.36;51.56;94530.41;5037875;28;20037;-81
2021/09/26 04:47:43;;;;;;;6.35;4.38;;;;;;;15.30;51.79;94526.34;5042106;28;20668;-79
2021/09/26 04:50:10;;;;;;;6.95;4.25;;;;;;;15.57;51.34;94524.31;5033867;28;20530;-80
2021/09/26 04:52:37;;;;;;;5.60;4.00;;;;;;;15.71;50.58;94519.47;5040352;28;20178;-78
2021/09/26 04:55:03;;;;;;;4.28;3.88;;;;;;;15.62;50.88;94516.88;5031721;28;20149;-78
2021/09/26 04:57:28;;;;;;;8.45;5.22;;;;;;;15.65;51.13;94526.91;5030123;28;20040;-80
2021/09/26 04:59:53;;;;;;;5.40;4.38;;;;;;;15.55;51.41;94530.00;5037081;28;20091;-79
2021/09/26 05:02:19;;;;;;;8.02;4.50;;;;;;;15.48;51.50;94521.69;5028203;28;20067;-80
2021/09/26 05:04:44;;;;;;;7.63;5.97;;;;;;;15.60;51.93;94529.00;5038724;28;20056;-79
2021/09/26 05:07:10;;;;;;;6.75;5.40;;;;;;;15.77;51.69;94535.03;5034909;28;20052;-80
2021/09/26 05:09:35;;;;;;;9.10;6.47;;;;;;;15.85;51.58;94547.59;5033538;28;20048;-79
2021/09/26 05:12:01;;;;;;;7.28;5.68;;;;;;;15.85;51.55;94536.84;5031746;28;20037;-79
2021/09/26 05:14:27;;;;;;;8.38;7.35;;;;;;;15.76;51.75;94527.31;5031533;28;20032;-79
2021/09/26 05:16:52;;;;;;;7.43;6.57;;;;;;;15.81;51.64;94524.44;5036265;28;20021;-80
2021/09/26 05:19:17;;;;;;;6.90;5.60;;;;;;;15.91;51.57;94540.13;5045429;28;20067;-80
2021/09/26 05:21:43;;;;;;;7.47;6.00;;;;;;;16.06;51.07;94528.78;5032238;28;20433;-78
2021/09/26 05:24:09;;;;;;;9.98;7.40;;;;;;;16.15;51.07;94540.22;5027435;28;20054;-80
2021/09/26 05:26:34;;;;;;;11.07;7.40;;;;;;;16.24;51.04;94532.88;5034315;28;20071;-79
2021/09/26 05:29:02;;;;;;;10.55;7.35;;;;;;;16.19;51.06;94534.97;5034417;28;20021;-78
2021/09/26 05:31:28;;;;;;;8.20;7.35;;;;;;;16.30;50.77;94539.63;5026093;28;20159;-81
2021/09/26 05:33:56;;;;;;;12.27;7.35;;;;;;;16.49;50.37;94543.72;5034718;28;20044;-77
2021/09/26 05:36:21;;;;;;;10.90;6.60;;;;;;;16.46;50.53;94533.63;5030961;28;20433;-79
2021/09/26 05:38:47;;;;;;;9.02;7.57;;;;;;;16.51;50.27;94541.50;5029151;28;20041;-80
2021/09/26 05:41:12;;;;;;;10.85;7.88;;;;;;;16.52;50.01;94535.00;5029919;28;20605;-79
2021/09/26 05:43:37;;;;;;;7.97;7.15;;;;;;;16.51;50.37;94552.22;5035482;28;20045;-78
2021/09/26 05:46:06;;;;;;;14.02;8.55;;;;;;;16.55;50.34;94542.38;5033880;28;20431;-78
2021/09/26 05:48:31;;;;;;;12.70;8.77;;;;;;;16.69;50.20;94532.13;5049015;28;20032;-78
2021/09/26 05:50:57;;;;;;;15.98;10.73;;;;;;;16.61;50.97;94552.59;5027119;28;20029;-80
2021/09/26 05:53:23;;;;;;;15.80;10.13;;;;;;;16.74;50.99;94548.81;5035269;28;20025;-77
2021/09/26 05:55:49;;;;;;;13.60;9.95;;;;;;;16.71;51.17;94540.63;5030346;28;20029;-78
2021/09/26 05:58:15;;;;;;;14.88;9.85;;;;;;;16.83;50.56;94537.94;5024870;28;20632;-81
2021/09/26 06:00:40;;;;;;;14.05;9.82;;;;;;;17.03;50.13;94558.56;5030210;28;20049;-79
2021/09/26 06:03:06;;;;;;;20.88;13.05;;;;;;;16.81;50.98;94556.31;5055412;28;20041;-78
2021/09/26 06:05:32;;;;;;;18.45;12.10;;;;;;;16.85;51.06;94554.53;5029638;28;20036;-77
2021/09/26 06:07:58;;;;;;;15.32;10.50;;;;;;;17.05;50.55;94558.25;5030936;28;20183;-79
2021/09/26 06:10:24;;;;;;;16.73;10.55;;;;;;;17.13;50.20;94552.78;5035048;28;20427;-78
2021/09/26 06:12:49;;;;;;;14.45;10.23;;;;;;;17.10;49.79;94544.56;5032422;28;20037;-78
2021/09/26 06:15:15;;;;;;;14.25;9.95;;;;;;;17.17;49.88;94559.03;5026341;28;20044;-78
2021/09/26 06:17:40;;;;;;;13.65;9.98;;;;;;;17.25;49.77;94553.91;5030040;28;20417;-78
2021/09/26 06:20:06;;;;;;;14.85;10.45;;;;;;;17.15;49.95;94542.47;5035693;28;20586;-78
2021/09/26 06:22:32;;;;;;;13.10;9.80;;;;;;;17.17;49.75;94534.84;5027871;28;20051;-81
2021/09/26 06:24:58;;;;;;;13.48;10.38;;;;;;;17.27;50.46;94547.06;5034624;28;20107;-79
2021/09/26 06:27:29;;;;;;;12.02;10.48;;;;;;;17.38;49.62;94552.75;5027432;28;20140;-77
2021/09/26 06:29:54;;;;;;;12.95;9.25;;;;;;;17.33;49.76;94547.63;5031790;28;20824;-78
2021/09/26 06:32:20;;;;;;;12.73;9.20;;;;;;;17.26;49.71;94533.97;5033112;28;20040;-77
2021/09/26 06:34:46;;;;;;;13.68;9.88;;;;;;;17.31;49.82;94531.03;5033906;28;20052;-79
2021/09/26 06:37:11;;;;;;;13.18;10.18;;;;;;;17.52;49.36;94553.19;5043943;28;20166;-79
2021/09/26 06:39:37;;;;;;;13.93;9.88;;;;;;;17.36;49.49;94550.41;5035034;28;20040;-79
2021/09/26 06:42:03;;;;;;;14.23;10.32;;;;;;;17.28;49.47;94539.78;5033569;28;20036;-80
2021/09/26 06:44:30;;;;;;;12.77;9.30;;;;;;;17.34;49.50;94538.44;5023285;28;20573;-77
2021/09/26 06:46:55;;;;;;;11.68;8.68;;;;;;;17.40;49.47;94554.00;5035511;28;20098;-78
2021/09/26 06:49:21;;;;;;;17.35;8.55;;;;;;;17.41;49.91;94549.38;5034340;28;20037;-78
2021/09/26 06:51:46;;;;;;;11.60;8.80;;;;;;;17.53;49.58;94552.06;5025562;28;20037;-79
2021/09/26 06:54:12;;;;;;;14.85;9.60;;;;;;;17.50;50.32;94539.31;5033818;28;20041;-80
2021/09/26 06:56:38;;;;;;;10.13;8.57;;;;;;;17.62;49.71;94536.59;5031802;28;20025;-79
2021/09/26 06:59:03;;;;;;;16.15;9.35;;;;;;;17.87;49.11;94554.25;5033536;28;20029;-81
2021/09/26 07:01:32;;;;;;;10.13;8.32;;;;;;;17.94;49.34;94554.47;5031398;28;20033;-79
2021/09/26 07:03:58;;;;;;;10.82;8.02;;;;;;;17.96;49.12;94546.84;5032048;28;20028;-77
2021/09/26 07:06:23;;;;;;;11.13;8.60;;;;;;;17.93;49.10;94539.47;5029094;28;20996;-79
2021/09/26 07:08:48;;;;;;;10.55;8.43;;;;;;;18.09;49.53;94554.88;5031426;28;20059;-77
2021/09/26 07:11:14;;;;;;;12.82;8.05;;;;;;;17.93;50.22;94550.22;5035619;28;20033;-79
2021/09/26 07:13:39;;;;;;;10.25;7.57;;;;;;;17.99;49.92;94548.84;5030607;28;20044;-78
2021/09/26 07:16:05;;;;;;;9.23;7.88;;;;;;;18.06;49.44;94561.72;5032341;28;20033;-77
2021/09/26 07:18:30;;;;;;;10.52;7.68;;;;;;;18.10;48.82;94537.59;5033858;28;20051;-78
2021/09/26 07:20:56;;;;;;;11.77;7.90;;;;;;;18.33;48.10;94538.63;5028287;28;20496;-79
2021/09/26 07:23:21;;;;;;;13.43;9.07;;;;;;;18.57;48.34;94551.19;5031821;28;20035;-79
2021/09/26 07:25:46;;;;;;;12.07;7.72;;;;;;;18.71;47.64;94555.06;5027906;28;20021;-78
2021/09/26 07:28:12;;;;;;;12.40;7.28;;;;;;;18.57;47.79;94538.50;5021273;28;20520;-78
2021/09/26 07:30:37;;;;;;;10.75;6.97;;;;;;;18.76;47.45;94535.94;5031971;28;20967;-80
2021/09/26 07:33:03;;;;;;;8.13;7.32;;;;;;;18.77;46.92;94515.91;5028293;28;20049;-80
2021/09/26 07:35:29;;;;;;;9.18;7.07;;;;;;;18.77;47.09;94550.94;5031261;28;20477;-78
2021/09/26 07:37:54;;;;;;;9.32;6.38;;;;;;;18.96;46.77;94552.19;5028675;28;20107;-79
2021/09/26 07:40:22;;;;;;;9.52;7.47;;;;;;;18.74;46.86;94543.56;5030659;28;20440;-78
2021/09/26 07:42:48;;;;;;;10.18;6.50;;;;;;;19.04;46.56;94556.63;5029394;28;20041;-80
2021/09/26 07:45:13;;;;;;;9.60;6.90;;;;;;;19.34;45.58;94552.34;5024720;28;20041;-79
2021/09/26 07:47:42;;;;;;;9.18;7.03;;;;;;;19.50;45.13;94558.53;5030920;28;20017;-79
2021/09/26 07:50:08;;;;;;;12.30;7.53;;;;;;;19.44;45.65;94554.50;5032527;28;20025;-81
2021/09/26 07:52:34;;;;;;;18.73;7.05;;;;;;;19.41;45.69;94555.19;5025709;28;20045;-79
2021/09/26 07:55:00;;;;;;;15.88;7.20;;;;;;;19.62;45.36;94555.69;5031953;28;20526;-80
2021/09/26 07:57:25;;;;;;;8.13;6.63;;;;;;;19.39;46.01;94541.28;5029667;28;20120;-80
2021/09/26 07:59:52;;;;;;;7.82;7.03;;;;;;;19.62;45.67;94565.72;5035906;28;20036;-79
2021/09/26 08:02:18;;;;;;;11.07;6.90;;;;;;;19.61;45.16;94546.03;5027873;28;20382;-80
2021/09/26 08:04:43;;;;;;;8.02;6.13;;;;;;;19.62;45.30;94550.31;5027468;28;20033;-79
2021/09/26 08:07:09;;;;;;;9.73;6.22;;;;;;;19.70;45.77;94545.84;5042471;28;20090;-81
2021/09/26 08:09:35;;;;;;;10.32;6.80;;;;;;;19.60;45.13;94552.56;5025797;28;20056;-80
2021/09/26 08:12:02;;;;;;;10.13;7.07;;;;;;;19.78;44.70;94547.56;5027299;28;20037;-79
2021/09/26 08:14:28;;;;;;;9.30;6.45;;;;;;;19.93;44.72;94559.44;5033252;28;20494;-79
2021/09/26 08:16:53;;;;;;;9.40;6.18;;;;;;;20.14;44.67;94565.28;5024200;28;20033;-80
2021/09/26 08:19:21;;;;;;;8.50;5.72;;;;;;;20.04;44.18;94563.16;5033383;28;20136;-79
2021/09/26 08:21:47;;;;;;;10.35;5.20;;;;;;;20.03;45.02;94561.59;5032864;28;20044;-81
2021/09/26 08:24:13;;;;;;;9.07;5.85;;;;;;;20.11;43.70;94550.56;5028977;28;20061;-79
2021/09/26 08:26:38;;;;;;;9.38;6.10;;;;;;;19.99;44.29;94558.03;5027854;28;20116;-79
2021/09/26 08:29:03;;;;;;;8.43;5.68;;;;;;;;;;5028665;28;20021;-80
2021/09/26 08:31:29;;;;;;;8.00;4.90;;;;;;;19.73;44.56;94486.56;5027509;28;20689;-79
2021/09/26 08:33:54;;;;;;;5.80;4.95;;;;;;;20.21;44.70;94538.44;5034357;28;20530;-79
2021/09/26 08:36:20;;;;;;;7.68;5.15;;;;;;;20.32;44.03;94544.84;5028562;28;20057;-79
2021/09/26 08:38:46;;;;;;;7.20;4.85;;;;;;;20.33;43.20;94540.22;5027561;28;20380;-81
2021/09/26 08:41:16;;;;;;;6.03;5.10;;;;;;;20.51;43.02;94534.00;5029253;28;20036;-78
2021/09/26 08:43:41;;;;;;;8.38;5.70;;;;;;;20.42;42.88;94548.88;5043288;28;20041;-81
2021/09/26 08:46:07;;;;;;;10.13;5.32;;;;;;;20.29;43.84;94540.13;5029881;28;20115;-79
2021/09/26 08:48:34;;;;;;;8.82;5.40;;;;;;;20.41;44.95;94539.22;5027349;28;21130;-79
2021/09/26 08:51:01;;;;;;;6.55;5.05;;;;;;;20.44;43.65;94536.56;5019902;28;20130;-79
2021/09/26 08:53:27;;;;;;;6.65;5.18;;;;;;;20.38;43.15;94523.72;5001081;28;20041;-80
2021/09/26 08:55:56;;;;;;;6.20;5.57;;;;;;;20.39;42.99;94520.63;5022373;28;20691;-78
2021/09/26 08:58:23;;;;;;;10.05;4.80;;;;;;;20.59;43.14;94538.38;5023615;28;20056;-80
2021/09/26 09:00:49;;;;;;;5.43;3.83;;;;;;;20.69;42.62;94530.81;5016805;28;20052;-80
2021/09/26 09:03:45;;;;;;;6.15;5.35;;;;;;;20.73;43.21;94531.69;5016743;28;20041;-78
2021/09/26 09:06:16;;;;;;;11.30;5.00;;;;;;;20.63;42.94;94527.63;5016624;28;20500;-78
2021/09/26 09:08:44;;;;;;;8.73;5.45;;;;;;;20.64;43.23;94509.50;5026467;28;20386;-79
2021/09/26 09:11:10;;;;;;;5.55;5.00;;;;;;;20.86;42.38;94530.38;5016505;28;20029;-80
2021/09/26 09:13:40;;;;;;;10.07;5.32;;;;;;;21.10;42.70;94530.03;5022972;28;20485;-80
2021/09/26 09:16:13;;;;;;;7.90;5.05;;;;;;;21.12;42.84;94518.84;5034813;28;20063;-80
2021/09/26 09:18:50;;;;;;;6.97;4.68;;;;;;;21.27;41.89;94526.78;5030321;28;20037;-80
2021/09/26 09:21:25;;;;;;;8.77;5.13;;;;;;;21.27;42.58;94521.38;5024239;28;20038;-81
2021/09/26 09:24:27;;;;;;;10.18;5.70;;;;;;;21.33;43.19;94522.66;5027105;28;20041;-78
2021/09/26 09:26:55;;;;;;;7.32;5.70;;;;;;;21.38;43.16;94524.25;5012869;28;20408;-80
2021/09/26 09:29:24;;;;;;;7.70;5.43;;;;;;;21.30;42.90;94482.00;5026889;28;20032;-78
2021/09/26 09:31:50;;;;;;;7.10;5.05;;;;;;;21.41;42.20;94510.78;5026559;28;20104;-78
2021/09/26 09:34:41;;;;;;;6.57;5.35;;;;;;;21.64;42.18;94520.78;5029355;28;20059;-78
2021/09/26 09:37:31;;;;;;;9.60;5.15;;;;;;;21.43;41.35;94526.66;5029024;28;20076;-77
2021/09/26 09:40:04;;;;;;;9.52;5.70;;;;;;;21.33;41.92;94525.34;5033236;28;20075;-78
2021/09/26 09:42:36;;;;;;;6.68;4.93;;;;;;;21.57;41.86;94515.28;5032042;28;20051;-78
2021/09/26 09:45:16;;;;;;;13.73;6.32;;;;;;;21.35;41.70;94517.66;5032711;28;20038;-79
2021/09/26 09:48:14;;;;;;;7.30;5.15;;;;;;;21.60;42.66;94514.56;5029334;28;20504;-78
2021/09/26 09:50:41;;;;;;;6.70;5.30;;;;;;;21.84;41.65;94503.28;5029568;28;20092;-77
2021/09/26 09:53:17;;;;;;;5.95;4.95;;;;;;;21.90;41.06;94506.44;5030875;28;20037;-77
2021/09/26 09:55:44;;;;;;;11.32;4.72;;;;;;;21.80;41.10;94486.22;5029540;28;20071;-78
2021/09/26 09:58:15;;;;;;;6.40;4.72;;;;;;;21.87;41.54;94505.25;5027764;28;20539;-77
2021/09/26 10:00:52;;;;;;;8.18;4.80;;;;;;;21.98;41.91;94498.03;5034866;28;20037;-78
2021/09/26 10:03:37;;;;;;;9.30;5.47;;;;;;;21.99;41.87;94493.41;5033336;28;20052;-79
2021/09/26 10:06:18;;;;;;;6.15;5.15;;;;;;;21.81;42.22;94472.28;5031720;28;20521;-79
2021/09/26 10:08:48;;;;;;;9.38;4.93;;;;;;;21.72;41.88;94477.19;5032435;28;20056;-79
2021/09/26 10:11:13;;;;;;;7.75;4.95;;;;;;;21.70;41.99;94495.75;5033966;28;20037;-77
2021/09/26 10:13:39;;;;;;;6.55;5.18;;;;;;;21.76;42.66;94486.16;5034724;28;20040;-79
2021/09/26 10:16:06;;;;;;;6.65;4.72;;;;;;;22.13;42.40;94488.16;5027689;28;21150;-77
2021/09/26 10:18:32;;;;;;;5.53;4.30;;;;;;;22.14;40.97;94481.59;5032073;28;20578;-78
2021/09/26 10:20:58;;;;;;;5.63;4.75;;;;;;;22.34;40.92;94480.25;5028451;28;20045;-77
2021/09/26 10:23:23;;;;;;;8.52;4.93;;;;;;;22.49;40.54;94470.34;5034374;28;20061;-79
2021/09/26 10:25:49;;;;;;;6.85;4.22;;;;;;;22.52;40.07;94461.47;5032959;28;20696;-77
2021/09/26 10:28:17;;;;;;;5.97;4.78;;;;;;;22.51;40.08;94470.75;5027940;28;20415;-77
2021/09/26 10:30:44;;;;;;;8.85;4.57;;;;;;;22.15;40.11;94431.66;5029807;28;20040;-78
2021/09/26 10:33:12;;;;;;;7.03;4.10;;;;;;;22.46;41.67;94454.84;5033474;28;20045;-77
2021/09/26 10:35:38;;;;;;;8.57;5.13;;;;;;;22.62;40.90;94460.81;5029041;28;20040;-78
2021/09/26 10:38:10;;;;;;;6.65;5.55;;;;;;;22.69;40.58;94455.41;5021149;28;20435;-78
2021/09/26 10:40:39;;;;;;;5.85;4.38;;;;;;;22.65;41.53;94441.84;5028100;28;20663;-77
2021/09/26 10:43:21;;;;;;;6.85;4.45;;;;;;;22.83;40.00;94457.50;5018904;28;20064;-78
2021/09/26 10:45:48;;;;;;;9.80;4.80;;;;;;;22.87;39.76;94456.41;5029763;28;20045;-77
2021/09/26 10:48:19;;;;;;;9.45;5.15;;;;;;;22.91;38.46;94451.78;5035492;28;20047;-77
2021/09/26 10:50:46;;;;;;;19.45;6.40;;;;;;;22.93;38.45;94448.66;5030822;28;20033;-78
2021/09/26 10:53:13;;;;;;;7.00;4.30;;;;;;;23.12;37.59;94446.50;5040583;28;20098;-78
2021/09/26 10:55:44;;;;;;;5.28;3.92;;;;;;;23.20;36.58;94441.13;5035008;28;20129;-77
2021/09/26 10:58:14;;;;;;;7.93;4.88;;;;;;;23.27;36.49;94449.31;5026029;28;20064;-76
2021/09/26 11:00:58;;;;;;;12.32;4.55;;;;;;;23.30;37.04;94437.69;5037798;28;20029;-78
2021/09/26 11:03:41;;;;;;;7.80;4.50;;;;;;;23.39;37.38;94427.28;5029768;28;20513;-78
2021/09/26 11:06:29;;;;;;;7.03;4.60;;;;;;;23.47;35.65;94424.22;5035064;28;20033;-77
2021/09/26 11:08:57;;;;;;;75.93;13.77;;;;;;;23.49;37.62;94415.72;5018750;28;20504;-78
2021/09/26 11:11:35;;;;;;;105.28;14.98;;;;;;;23.36;37.68;94417.97;5027677;28;20025;-77
2021/09/26 11:14:01;;;;;;;67.97;11.60;;;;;;;23.12;36.74;94403.09;5035140;28;20034;-77
2021/09/26 11:16:51;;;;;;;27.15;5.95;;;;;;;23.38;37.30;94418.34;5027758;28;20135;-79
2021/09/26 11:19:17;;;;;;;75.25;10.32;;;;;;;23.15;35.71;94377.13;5031971;28;20045;-79
2021/09/26 11:21:42;;;;;;;5.68;4.05;;;;;;;23.51;34.15;94408.75;5024317;28;20569;-78
2021/09/26 11:24:26;;;;;;;58.25;11.80;;;;;;;23.41;34.93;94395.13;5026441;28;20147;-78
2021/09/26 11:27:16;;;;;;;52.30;8.80;;;;;;;23.54;34.94;94407.22;5032830;28;20144;-77
2021/09/26 11:29:44;;;;;;;18.27;4.72;;;;;;;23.59;35.26;94398.72;5021219;28;20049;-77
2021/09/26 11:32:18;;;;;;;6.00;4.45;;;;;;;23.56;34.86;94389.38;5032062;28;20387;-78
2021/09/26 11:57:59;;;;;;;6.97;4.45;;;;;;;24.31;33.74;94359.72;5060032;27;20475;-75
2021/09/26 12:00:30;;;;;;;10.48;4.97;;;;;;;24.28;33.60;94341.47;5041015;28;20056;-74
2021/09/26 12:02:56;;;;;;;5.65;3.95;;;;;;;24.52;35.49;94365.19;5038319;28;20107;-77